La Grande, OR

9:29 PM PST on December 20, 2014 (GMT -0800)
Meacham | Change Station
CLOSE
Current Station
Airport
Location: Meacham,
Elevation: 3720 ft
Nearby Weather Stations
Active Advisory: Areal Flood Watch

Elev 3720 ft 45.51 °N, 118.42 °W | Updated 7 minutes ago

Rain
Rain
42 °F
Feels Like 40 °F
N
4
Wind Variable Wind from Variable

Today
High -- | Low -- °F
--% Chance of Precip.
Yesterday
High -- | Low -- °F
Precip. -- in
7:28 AM 4:12 PM
Waning Crescent, 1% visible
Pressure 29.67 in
Visibility 3.0 miles
Clouds Overcast 3200 ft
Windchill 40 °F
Dew Point 40 °F
Humidity 92%
Rainfall 1.69 in
Snow Depth Not available.
UV 0 out of 12
Pollen .90 out of 12
Air Quality Not available.
Flu Activity Not available.
SPECI KMEH 210522Z AUTO VRB03KT 3SM RA BR OVC032 06/04 A2967 RMK AO2 P0010 T00560044

More Conditions Fewer Conditions

Pressure 29.67 in
Visibility 3.0 miles
Clouds Overcast 3200 ft
Windchill 40 °F
Dew Point 40 °F
Humidity 92%
Rainfall 1.69 in
Snow Depth Not available.
UV 0 out of 12
Pollen .90 out of 12
Air Quality Not available.
Flu Activity Not available.
SPECI KMEH 210522Z AUTO VRB03KT 3SM RA BR OVC032 06/04 A2967 RMK AO2 P0010 T00560044

More Conditions Fewer Conditions

10-Day Weather Forecast

Almanac

Astronomy

Dec. 20, 2014 Rise Set
Actual Time
Civil Twilight
Nautical Twilight
Astronomical Twilight
Moon
Length of Visible Light
Length of Day
Tomorrow will be .
, % of the Moon is Illuminated

Today's Extremes

State Highs State Lows

Community

WunderPhotos

Upload Photos

1,779,358 photos uploaded!

WunderBlogs® & News

Nearby

Air Quality

  Air Quality AQ Index Pollutant
Not available.

Snow Depth

Station Depth Elevation

Earthquake Activity

City Distance Mag. Time & Date
Minimum magnitude displayed is 2.5.

Coastal Water Temperatures

Place Temperature

Nearby Weather Stations